createdAt,value
2024-01-28T00:01:45.657Z,26.43
2024-01-28T00:04:15.736Z,20.33
2024-01-28T00:06:45.289Z,19.43
2024-01-28T00:09:15.072Z,15.20
2024-01-28T00:11:45.490Z,30.47
2024-01-28T00:14:14.345Z,17.57
2024-01-28T00:16:43.303Z,20.90
2024-01-28T00:19:12.327Z,30.77
2024-01-28T00:21:41.186Z,16.37
2024-01-28T00:24:10.247Z,16.47
2024-01-28T00:26:42.633Z,16.30
2024-01-28T00:29:12.797Z,15.73
2024-01-28T00:31:41.628Z,23.13
2024-01-28T00:34:10.463Z,14.40
2024-01-28T00:36:39.409Z,23.97
2024-01-28T00:39:08.508Z,20.53
2024-01-28T00:41:38.363Z,15.73
2024-01-28T00:44:07.552Z,18.00
2024-01-28T00:46:38.188Z,11.27
2024-01-28T00:49:07.390Z,14.23
2024-01-28T00:51:36.377Z,17.03
2024-01-28T00:54:05.506Z,12.70
2024-01-28T00:56:35.070Z,23.60
2024-01-28T00:59:03.849Z,25.73
2024-01-28T01:01:32.739Z,37.17
2024-01-28T01:04:03.100Z,18.83
2024-01-28T01:06:31.997Z,21.23
2024-01-28T01:09:01.544Z,13.20
2024-01-28T01:11:30.478Z,19.00
2024-01-28T01:13:59.417Z,19.07
2024-01-28T01:16:28.729Z,13.43
2024-01-28T01:18:57.607Z,21.13
2024-01-28T01:21:27.815Z,27.13
2024-01-28T01:23:56.900Z,16.73
2024-01-28T01:26:25.679Z,14.80
2024-01-28T01:28:54.495Z,18.53
2024-01-28T01:31:23.323Z,14.03
2024-01-28T01:33:52.237Z,12.43
2024-01-28T01:36:21.059Z,25.53
2024-01-28T01:38:51.441Z,19.17
2024-01-28T01:41:20.424Z,11.33
2024-01-28T01:43:49.315Z,38.70
2024-01-28T01:46:18.164Z,15.67
2024-01-28T01:48:47.619Z,17.50
2024-01-28T01:51:18.082Z,14.37
2024-01-28T01:53:46.946Z,13.53
2024-01-28T01:56:17.570Z,19.63
2024-01-28T01:58:47.517Z,10.23
2024-01-28T02:01:18.032Z,16.70
2024-01-28T02:03:46.954Z,14.20
2024-01-28T02:06:18.326Z,17.27
2024-01-28T02:08:47.500Z,18.13
2024-01-28T02:11:17.716Z,17.83
2024-01-28T02:13:46.489Z,23.10
2024-01-28T02:16:15.231Z,16.27
2024-01-28T02:18:44.133Z,9.63
2024-01-28T02:21:13.220Z,36.53
2024-01-28T02:23:43.355Z,38.03
2024-01-28T02:26:12.528Z,31.00
2024-01-28T02:28:41.264Z,17.47
2024-01-28T02:31:10.032Z,13.50
2024-01-28T02:33:39.023Z,17.70
2024-01-28T02:36:08.706Z,15.83
2024-01-28T02:38:37.502Z,12.17
2024-01-28T02:41:07.706Z,14.50
2024-01-28T02:43:36.996Z,17.37
2024-01-28T02:46:06.478Z,27.63
2024-01-28T02:48:35.341Z,25.50
2024-01-28T02:51:04.436Z,10.27
2024-01-28T02:53:33.221Z,22.83
2024-01-28T02:56:02.127Z,16.50
2024-01-28T02:58:33.542Z,20.00
2024-01-28T03:01:02.942Z,15.33
2024-01-28T03:03:31.899Z,31.30
2024-01-28T03:06:00.736Z,13.27
2024-01-28T03:08:29.607Z,22.27
2024-01-28T03:10:58.358Z,11.47
2024-01-28T03:13:27.200Z,30.00
2024-01-28T03:15:57.889Z,18.90
2024-01-28T03:18:26.843Z,16.53
2024-01-28T03:20:55.633Z,15.93
2024-01-28T03:23:24.820Z,18.93
2024-01-28T03:25:53.532Z,16.30
2024-01-28T03:28:22.302Z,17.10
2024-01-28T03:30:51.219Z,10.73
2024-01-28T03:33:21.778Z,16.03
2024-01-28T03:35:50.646Z,11.47
2024-01-28T03:38:19.650Z,16.47
2024-01-28T03:40:48.518Z,11.80
2024-01-28T03:43:17.424Z,17.13
2024-01-28T03:45:46.290Z,11.83
2024-01-28T03:48:15.575Z,21.53
2024-01-28T03:50:45.871Z,22.43
2024-01-28T03:53:14.637Z,13.63
2024-01-28T03:55:44.433Z,13.47
2024-01-28T03:58:13.581Z,12.67
2024-01-28T04:00:42.500Z,19.53
2024-01-28T04:03:11.968Z,15.17
2024-01-28T04:05:40.827Z,18.80
2024-01-28T04:08:13.176Z,28.73
2024-01-28T04:10:42.028Z,19.60
2024-01-28T04:13:10.866Z,17.33
2024-01-28T04:15:39.642Z,24.77
2024-01-28T04:18:08.949Z,12.53
2024-01-28T04:20:37.828Z,17.33
2024-01-28T04:23:06.703Z,12.33
2024-01-28T04:25:36.783Z,25.40
2024-01-28T04:28:05.748Z,21.10
2024-01-28T04:30:34.541Z,16.47
2024-01-28T04:33:03.407Z,22.70
2024-01-28T04:35:32.169Z,16.07
2024-01-28T04:38:00.887Z,23.20
2024-01-28T04:40:29.877Z,21.27
2024-01-28T04:43:00.080Z,9.53
2024-01-28T04:45:28.992Z,7.90
2024-01-28T04:47:57.877Z,24.23
2024-01-28T04:50:26.908Z,13.63
2024-01-28T04:52:55.686Z,28.63
2024-01-28T04:55:24.693Z,17.00
2024-01-28T04:57:53.507Z,19.00
2024-01-28T05:00:24.618Z,25.10
2024-01-28T05:02:56.507Z,30.23
2024-01-28T05:05:25.387Z,43.53
2024-01-28T05:07:54.116Z,35.07
2024-01-28T05:10:23.008Z,30.63
2024-01-28T05:12:52.046Z,49.00
2024-01-28T05:15:22.947Z,22.20
2024-01-28T05:17:51.759Z,25.33
2024-01-28T05:20:20.579Z,23.70
2024-01-28T05:22:49.337Z,27.30
2024-01-28T05:25:18.366Z,13.17
2024-01-28T05:27:47.151Z,15.40
2024-01-28T05:30:16.253Z,16.50
2024-01-28T05:32:46.439Z,26.70
2024-01-28T05:35:15.232Z,45.63
2024-01-28T05:37:44.159Z,79.37
2024-01-28T05:40:14.199Z,37.90
2024-01-28T05:42:43.612Z,50.97
2024-01-28T05:45:12.437Z,23.57
2024-01-28T05:47:41.170Z,18.63
2024-01-28T05:50:12.486Z,18.10
2024-01-28T05:52:41.280Z,26.07
2024-01-28T05:55:10.210Z,25.93
2024-01-28T05:57:38.976Z,27.57
2024-01-28T06:00:10.009Z,14.63
2024-01-28T06:02:39.953Z,18.77
2024-01-28T06:05:11.600Z,14.37
2024-01-28T06:07:40.308Z,26.53
2024-01-28T06:10:09.656Z,15.37
2024-01-28T06:12:38.509Z,13.03
2024-01-28T06:15:09.577Z,36.50
2024-01-28T06:17:40.043Z,28.57
2024-01-28T06:20:11.412Z,22.57
2024-01-28T06:22:40.165Z,27.00
2024-01-28T06:25:10.822Z,17.70
2024-01-28T06:27:39.692Z,17.90
2024-01-28T06:30:09.908Z,13.73
2024-01-28T06:32:38.856Z,18.53
2024-01-28T06:35:08.670Z,19.60
2024-01-28T06:37:39.091Z,27.23
2024-01-28T06:40:09.368Z,18.60
2024-01-28T06:42:38.183Z,9.93
2024-01-28T06:45:09.352Z,21.67
2024-01-28T06:47:38.257Z,13.53
2024-01-28T06:50:08.142Z,16.90
2024-01-28T06:52:38.338Z,20.33
2024-01-28T06:55:08.490Z,23.30
2024-01-28T06:57:37.423Z,48.37
2024-01-28T07:00:11.632Z,21.57
2024-01-28T07:02:40.532Z,15.10
2024-01-28T07:05:10.781Z,20.47
2024-01-28T07:07:40.916Z,21.27
2024-01-28T07:10:10.884Z,17.23
2024-01-28T07:12:40.745Z,23.50
2024-01-28T07:15:10.929Z,24.47
2024-01-28T07:17:39.704Z,13.13
2024-01-28T07:20:10.021Z,27.40
2024-01-28T07:22:40.436Z,24.63
2024-01-28T07:25:09.934Z,21.83
2024-01-28T07:27:38.707Z,20.27
2024-01-28T07:30:08.710Z,21.47
2024-01-28T07:32:37.752Z,19.63
2024-01-28T07:35:08.319Z,22.83
2024-01-28T07:37:37.286Z,21.00
2024-01-28T07:40:08.953Z,26.77
2024-01-28T07:42:37.702Z,24.40
2024-01-28T07:45:07.016Z,26.73
2024-01-28T07:47:36.124Z,22.10
2024-01-28T07:50:06.526Z,26.10
2024-01-28T07:52:35.597Z,27.67
2024-01-28T07:55:04.472Z,31.13
2024-01-28T07:57:34.704Z,51.10
2024-01-28T08:00:06.022Z,109.50
2024-01-28T08:02:34.740Z,50.80
2024-01-28T08:05:03.502Z,56.90
2024-01-28T08:07:32.305Z,83.00
2024-01-28T08:10:01.084Z,64.37
2024-01-28T08:12:29.880Z,51.07
2024-01-28T08:15:00.490Z,52.50
2024-01-28T08:17:29.354Z,33.57
2024-01-28T08:19:58.735Z,47.67
2024-01-28T08:22:27.593Z,33.00
2024-01-28T08:24:56.480Z,35.47
2024-01-28T08:27:25.451Z,35.27
2024-01-28T08:29:54.267Z,26.30
2024-01-28T08:32:24.564Z,26.20
2024-01-28T08:34:53.732Z,19.53
2024-01-28T08:37:23.928Z,26.73
2024-01-28T08:39:52.815Z,17.70
2024-01-28T08:42:22.994Z,24.30
2024-01-28T08:44:51.977Z,25.23
2024-01-28T08:47:20.844Z,17.00
2024-01-28T08:49:51.956Z,18.10
2024-01-28T08:52:21.450Z,21.97
2024-01-28T08:54:50.399Z,27.13
2024-01-28T08:57:20.028Z,27.50
2024-01-28T08:59:48.848Z,19.23
2024-01-28T09:02:17.577Z,24.37
2024-01-28T09:04:46.583Z,23.83
2024-01-28T09:07:16.840Z,27.77
2024-01-28T09:09:45.907Z,19.10
2024-01-28T09:12:14.773Z,29.27
2024-01-28T09:14:43.862Z,29.77
2024-01-28T09:17:13.047Z,21.30
2024-01-28T09:19:41.905Z,19.30
2024-01-28T09:22:10.709Z,36.93
2024-01-28T09:24:41.125Z,20.10
2024-01-28T09:27:10.079Z,24.37
2024-01-28T09:29:40.359Z,35.40
2024-01-28T09:32:09.628Z,20.43
2024-01-28T09:34:38.522Z,16.90
2024-01-28T09:37:08.795Z,18.03
2024-01-28T09:39:37.671Z,13.80
2024-01-28T09:42:14.356Z,17.10
2024-01-28T09:44:43.156Z,23.03
2024-01-28T09:47:12.511Z,13.00
2024-01-28T09:49:44.174Z,14.87
2024-01-28T09:52:14.237Z,21.07
2024-01-28T09:54:45.840Z,28.73
2024-01-28T09:57:17.593Z,23.03
2024-01-28T09:59:47.537Z,24.63
2024-01-28T10:02:18.866Z,20.40
2024-01-28T10:04:48.139Z,25.03
2024-01-28T10:07:17.317Z,18.23
2024-01-28T10:09:46.900Z,17.00
2024-01-28T10:12:17.126Z,24.53
2024-01-28T10:14:52.559Z,29.50
2024-01-28T10:17:24.268Z,22.73
2024-01-28T10:19:53.199Z,21.27
2024-01-28T10:22:21.923Z,19.97
2024-01-28T10:24:51.679Z,24.40
2024-01-28T10:27:22.561Z,33.90
2024-01-28T10:29:51.677Z,18.53
2024-01-28T10:32:20.398Z,25.67
2024-01-28T10:34:49.364Z,17.40
2024-01-28T10:37:19.704Z,19.60
2024-01-28T10:39:52.943Z,16.57
2024-01-28T10:42:24.088Z,18.00
2024-01-28T10:44:58.890Z,24.97
2024-01-28T10:47:32.138Z,18.83
2024-01-28T10:50:04.535Z,17.90
2024-01-28T10:52:34.640Z,24.17
2024-01-28T10:55:03.927Z,23.20
2024-01-28T10:57:34.872Z,19.03
2024-01-28T11:00:06.297Z,25.93
2024-01-28T11:02:35.818Z,22.53
2024-01-28T11:05:05.194Z,21.70
2024-01-28T11:07:34.459Z,22.13
2024-01-28T11:10:03.634Z,14.33
2024-01-28T11:12:36.202Z,21.13
2024-01-28T11:15:05.247Z,24.07
2024-01-28T11:17:35.209Z,29.33
2024-01-28T11:20:10.775Z,27.43
2024-01-28T11:22:50.245Z,30.20
2024-01-28T11:25:21.831Z,22.27
2024-01-28T11:27:53.679Z,22.10
2024-01-28T11:30:23.824Z,25.17
2024-01-28T11:32:53.971Z,20.70
2024-01-28T11:35:24.686Z,23.33
2024-01-28T11:37:57.151Z,26.07
2024-01-28T11:40:31.202Z,29.17
2024-01-28T11:43:01.767Z,20.40
2024-01-28T11:45:31.161Z,29.57
2024-01-28T11:48:00.240Z,20.90
2024-01-28T11:50:29.079Z,23.30
2024-01-28T11:52:57.958Z,18.27
2024-01-28T11:55:26.758Z,16.67
2024-01-28T11:57:56.381Z,15.83
2024-01-28T12:00:27.929Z,22.83
2024-01-28T12:02:56.944Z,16.30
2024-01-28T12:05:25.911Z,19.07
2024-01-28T12:07:57.117Z,21.30
2024-01-28T12:10:26.172Z,24.43
2024-01-28T12:12:59.769Z,20.47
2024-01-28T12:15:30.033Z,18.40
2024-01-28T12:18:00.157Z,20.07
2024-01-28T12:20:29.164Z,21.87
2024-01-28T12:22:57.984Z,21.10
2024-01-28T12:25:26.795Z,22.20
2024-01-28T12:27:56.364Z,15.93
2024-01-28T12:30:25.795Z,22.07
2024-01-28T12:32:57.195Z,11.80
2024-01-28T12:35:26.137Z,12.50
2024-01-28T12:37:54.907Z,23.50
2024-01-28T12:40:23.713Z,14.97
2024-01-28T12:42:52.795Z,20.70
2024-01-28T12:45:22.546Z,12.67
2024-01-28T12:47:51.342Z,18.63
2024-01-28T12:50:21.977Z,11.47
2024-01-28T12:52:50.744Z,17.90
2024-01-28T12:55:19.728Z,6.73
2024-01-28T12:57:48.584Z,11.77
2024-01-28T13:00:19.764Z,10.27
2024-01-28T13:02:50.118Z,11.47
2024-01-28T13:05:20.864Z,4.30
2024-01-28T13:07:49.649Z,6.70
2024-01-28T13:10:18.655Z,12.80
2024-01-28T13:12:47.484Z,12.00
2024-01-28T13:15:16.401Z,7.80
2024-01-28T13:17:45.531Z,12.50
2024-01-28T13:20:14.885Z,7.30
2024-01-28T13:22:46.157Z,9.40
2024-01-28T13:25:16.462Z,7.00
2024-01-28T13:27:45.460Z,9.63
2024-01-28T13:30:15.031Z,14.10
2024-01-28T13:32:47.503Z,6.33
2024-01-28T13:35:16.614Z,8.20
2024-01-28T13:37:46.893Z,8.03
2024-01-28T13:40:15.605Z,8.43
2024-01-28T13:42:44.290Z,4.77
2024-01-28T13:45:13.505Z,3.23
2024-01-28T13:47:45.064Z,6.07
2024-01-28T13:50:14.005Z,10.90
2024-01-28T13:52:42.854Z,7.80
2024-01-28T13:55:13.052Z,8.40
2024-01-28T13:57:41.909Z,11.20
2024-01-28T14:00:12.506Z,6.60
2024-01-28T14:02:43.257Z,5.43
2024-01-28T14:05:13.828Z,5.03
2024-01-28T14:07:43.023Z,6.63
2024-01-28T14:10:13.719Z,9.27
2024-01-28T14:12:42.590Z,28.03
2024-01-28T14:15:12.001Z,34.90
2024-01-28T14:17:41.198Z,11.63
2024-01-28T14:20:11.224Z,7.90
2024-01-28T14:22:40.030Z,7.43
2024-01-28T14:25:09.479Z,7.00
2024-01-28T14:27:39.633Z,7.00
2024-01-28T14:30:09.526Z,7.20
2024-01-28T14:32:38.340Z,7.53
2024-01-28T14:35:07.961Z,3.73
2024-01-28T14:37:36.844Z,8.20
2024-01-28T14:40:07.763Z,4.17
2024-01-28T14:42:36.831Z,10.37
2024-01-28T14:45:08.201Z,4.00
2024-01-28T14:47:37.209Z,13.27
2024-01-28T14:50:06.556Z,8.83
2024-01-28T14:52:35.315Z,7.43
2024-01-28T14:55:05.077Z,6.80
2024-01-28T14:57:35.229Z,7.67
2024-01-28T15:00:05.532Z,15.13
2024-01-28T15:02:35.781Z,5.67
2024-01-28T15:05:06.640Z,9.87
2024-01-28T15:07:35.484Z,8.50
2024-01-28T15:10:04.842Z,8.57
2024-01-28T15:12:33.676Z,7.30
2024-01-28T15:15:02.400Z,10.30
2024-01-28T15:17:31.227Z,11.03
2024-01-28T15:20:01.626Z,13.33
2024-01-28T15:22:30.526Z,12.13
2024-01-28T15:25:00.568Z,23.33
2024-01-28T15:27:30.468Z,14.70
2024-01-28T15:29:59.275Z,23.93
2024-01-28T15:32:28.066Z,13.97
2024-01-28T15:34:57.381Z,15.87
2024-01-28T15:37:28.180Z,11.23
2024-01-28T15:39:57.544Z,17.03
2024-01-28T15:42:26.433Z,16.00
2024-01-28T15:44:57.798Z,18.80
2024-01-28T15:47:27.199Z,17.10
2024-01-28T15:49:56.348Z,13.70
2024-01-28T15:52:25.476Z,14.53
2024-01-28T15:54:55.651Z,8.90
2024-01-28T15:57:24.771Z,11.67
2024-01-28T16:00:04.509Z,14.13
2024-01-28T16:02:36.398Z,16.27
2024-01-28T16:05:05.484Z,15.40
2024-01-28T16:07:34.411Z,15.10
2024-01-28T16:10:04.712Z,13.50
2024-01-28T16:12:33.745Z,11.67
2024-01-28T16:15:03.533Z,13.70
2024-01-28T16:17:32.417Z,18.43
2024-01-28T16:20:01.286Z,13.63
2024-01-28T16:22:30.884Z,13.57
2024-01-28T16:24:59.763Z,10.27
2024-01-28T16:27:30.071Z,13.47
2024-01-28T16:29:58.761Z,13.90
2024-01-28T16:32:27.474Z,21.77
2024-01-28T16:34:56.691Z,14.27
2024-01-28T16:37:26.287Z,14.80
2024-01-28T16:39:55.039Z,17.83
2024-01-28T16:42:24.626Z,15.97
2024-01-28T16:44:54.658Z,9.50
2024-01-28T16:47:23.414Z,10.87
2024-01-28T16:49:52.387Z,10.67
2024-01-28T16:52:21.970Z,19.27
2024-01-28T16:54:50.933Z,11.63
2024-01-28T16:57:20.036Z,23.00
2024-01-28T16:59:48.774Z,9.20
2024-01-28T17:02:19.274Z,7.90
2024-01-28T17:04:48.046Z,10.43
2024-01-28T17:07:16.834Z,12.67
2024-01-28T17:09:45.611Z,13.73
2024-01-28T17:12:14.380Z,18.93
2024-01-28T17:14:44.300Z,14.37
2024-01-28T17:17:13.208Z,22.17
2024-01-28T17:19:43.393Z,21.13
2024-01-28T17:22:12.139Z,18.40
2024-01-28T17:24:41.024Z,10.57
2024-01-28T17:27:11.114Z,21.60
2024-01-28T17:29:39.855Z,18.10
2024-01-28T17:32:09.670Z,11.63
2024-01-28T17:34:38.900Z,12.90
2024-01-28T17:37:09.469Z,13.07
2024-01-28T17:39:38.327Z,19.33
2024-01-28T17:42:12.614Z,12.17
2024-01-28T17:44:41.399Z,14.00
2024-01-28T17:47:11.246Z,14.40
2024-01-28T17:49:40.407Z,15.07
2024-01-28T17:52:13.035Z,13.53
2024-01-28T17:54:42.251Z,13.60
2024-01-28T17:57:11.057Z,16.50
2024-01-28T17:59:39.837Z,20.73
2024-01-28T18:02:08.614Z,23.63
2024-01-28T18:04:37.646Z,19.33
2024-01-28T18:07:07.005Z,15.00
2024-01-28T18:09:38.465Z,18.90
2024-01-28T18:12:08.513Z,11.83
2024-01-28T18:14:37.410Z,19.90
2024-01-28T18:17:06.637Z,18.23
2024-01-28T18:19:35.786Z,17.07
2024-01-28T18:22:04.802Z,14.53
2024-01-28T18:24:34.975Z,18.40
2024-01-28T18:27:05.434Z,20.73
2024-01-28T18:29:34.349Z,19.20
2024-01-28T18:32:03.445Z,14.70
2024-01-28T18:34:33.686Z,29.93
2024-01-28T18:37:02.829Z,20.63
2024-01-28T18:39:32.440Z,23.20
2024-01-28T18:42:01.256Z,30.53
2024-01-28T18:44:31.620Z,34.03
2024-01-28T18:47:00.354Z,25.53
2024-01-28T18:49:29.297Z,24.30
2024-01-28T18:51:59.226Z,32.07
2024-01-28T18:54:28.233Z,20.57
2024-01-28T18:56:57.299Z,25.97
2024-01-28T18:59:26.045Z,21.20
2024-01-28T19:01:56.364Z,29.40
2024-01-28T19:04:25.378Z,28.70
2024-01-28T19:06:54.732Z,26.63
2024-01-28T19:09:23.584Z,22.87
2024-01-28T19:11:52.489Z,19.03
2024-01-28T19:14:22.560Z,22.13
2024-01-28T19:16:55.707Z,27.37
2024-01-28T19:19:26.820Z,22.43
2024-01-28T19:21:55.777Z,31.67
2024-01-28T19:24:24.862Z,28.17
2024-01-28T19:26:53.704Z,20.50
2024-01-28T19:29:22.482Z,28.37
2024-01-28T19:31:51.327Z,28.37
2024-01-28T19:34:20.175Z,27.23
2024-01-28T19:36:50.435Z,42.27
2024-01-28T19:39:25.096Z,24.93
2024-01-28T19:41:54.253Z,36.77
2024-01-28T19:44:23.061Z,29.20
2024-01-28T19:46:51.912Z,20.80
2024-01-28T19:49:21.008Z,23.67
2024-01-28T19:51:51.370Z,20.03
2024-01-28T19:54:22.212Z,25.07
2024-01-28T19:56:51.269Z,28.47
2024-01-28T19:59:21.079Z,26.47
2024-01-28T20:01:51.713Z,28.43
2024-01-28T20:04:20.827Z,25.47
2024-01-28T20:06:51.713Z,17.80
2024-01-28T20:09:20.554Z,22.67
2024-01-28T20:11:49.536Z,16.57
2024-01-28T20:14:18.378Z,23.03
2024-01-28T20:16:47.187Z,22.00
2024-01-28T20:19:20.721Z,35.03
2024-01-28T20:21:54.449Z,23.80
2024-01-28T20:24:23.450Z,27.00
2024-01-28T20:26:52.294Z,24.07
2024-01-28T20:29:23.964Z,25.43
2024-01-28T20:31:52.752Z,21.23
2024-01-28T20:34:23.546Z,23.90
2024-01-28T20:36:53.874Z,21.17
2024-01-28T20:39:23.406Z,23.00
2024-01-28T20:41:52.541Z,17.77
2024-01-28T20:44:25.001Z,22.60
2024-01-28T20:46:54.111Z,21.27
2024-01-28T20:49:23.300Z,32.93
2024-01-28T20:51:53.563Z,28.43
2024-01-28T20:54:22.404Z,29.70
2024-01-28T20:56:51.502Z,30.37
2024-01-28T20:59:20.424Z,26.63
2024-01-28T21:01:49.312Z,36.43
2024-01-28T21:04:18.284Z,26.17
2024-01-28T21:06:47.163Z,33.07
2024-01-28T21:09:17.473Z,31.00
2024-01-28T21:11:46.271Z,35.70
2024-01-28T21:14:17.122Z,33.50
2024-01-28T21:16:46.088Z,31.60
2024-01-28T21:19:15.323Z,42.30
2024-01-28T21:21:44.602Z,23.90
2024-01-28T21:24:13.916Z,21.63
2024-01-28T21:26:44.023Z,25.57
2024-01-28T21:29:13.215Z,19.43
2024-01-28T21:31:42.425Z,29.80
2024-01-28T21:34:12.367Z,28.00
2024-01-28T21:36:41.298Z,27.53
2024-01-28T21:39:10.179Z,29.03
2024-01-28T21:41:39.355Z,25.87
2024-01-28T21:44:09.925Z,37.43
2024-01-28T21:46:38.793Z,26.83
2024-01-28T21:49:07.904Z,22.27
2024-01-28T21:51:37.550Z,34.47
2024-01-28T21:54:06.783Z,32.77
2024-01-28T21:56:35.599Z,22.90
2024-01-28T21:59:04.701Z,27.03
2024-01-28T22:01:35.019Z,28.37
2024-01-28T22:04:03.888Z,21.80
2024-01-28T22:06:32.855Z,20.27
2024-01-28T22:09:01.814Z,29.20
2024-01-28T22:11:30.727Z,30.73
2024-01-28T22:13:59.526Z,31.67
2024-01-28T22:16:28.467Z,45.80
2024-01-28T22:18:58.699Z,24.33
2024-01-28T22:21:27.913Z,21.90
2024-01-28T22:23:56.837Z,30.43
2024-01-28T22:26:25.665Z,27.93
2024-01-28T22:28:54.679Z,34.20
2024-01-28T22:31:23.379Z,25.20
2024-01-28T22:33:52.929Z,23.23
2024-01-28T22:36:23.144Z,27.13
2024-01-28T22:38:51.943Z,29.67
2024-01-28T22:41:20.685Z,30.33
2024-01-28T22:43:49.441Z,23.03
2024-01-28T22:46:18.228Z,33.83
2024-01-28T22:48:47.249Z,28.50
2024-01-28T22:51:16.342Z,25.47
2024-01-28T22:53:46.558Z,36.97
2024-01-28T22:56:15.312Z,22.87
2024-01-28T22:58:44.086Z,25.77
2024-01-28T23:01:14.112Z,25.43
2024-01-28T23:03:44.473Z,25.10
2024-01-28T23:06:18.701Z,30.73
2024-01-28T23:08:49.263Z,34.30
2024-01-28T23:11:18.110Z,31.13
2024-01-28T23:13:47.482Z,20.50
2024-01-28T23:16:16.879Z,41.17
2024-01-28T23:18:45.853Z,28.53
2024-01-28T23:21:15.072Z,26.93
2024-01-28T23:23:44.509Z,22.77
2024-01-28T23:26:14.659Z,23.10
2024-01-28T23:28:43.416Z,24.10
2024-01-28T23:31:12.191Z,32.03
2024-01-28T23:33:40.206Z,17.97
2024-01-28T23:36:09.789Z,27.20
2024-01-28T23:38:39.282Z,21.00
2024-01-28T23:41:08.038Z,39.13
2024-01-28T23:43:38.167Z,33.67
2024-01-28T23:46:06.922Z,32.47
2024-01-28T23:48:38.557Z,35.73
2024-01-28T23:51:07.521Z,26.20
2024-01-28T23:53:36.276Z,24.07
2024-01-28T23:56:05.372Z,30.30
2024-01-28T23:58:34.143Z,34.53
